sensor_id;sensor_type;location;lat;lon;timestamp;P1;durP1;ratioP1;P2;durP2;ratioP2
5722;SDS011;2886;49.722;8.612;2024-03-23T00:53:36;9.73;;;5.33;;
5722;SDS011;2886;49.722;8.612;2024-03-23T00:56:02;6.60;;;4.20;;
5722;SDS011;2886;49.722;8.612;2024-03-23T00:58:28;7.53;;;4.00;;
5722;SDS011;2886;49.722;8.612;2024-03-23T01:00:54;5.70;;;3.90;;
5722;SDS011;2886;49.722;8.612;2024-03-23T01:03:20;7.77;;;4.70;;
5722;SDS011;2886;49.722;8.612;2024-03-23T01:05:46;7.00;;;3.73;;
5722;SDS011;2886;49.722;8.612;2024-03-23T01:08:13;7.23;;;4.20;;
5722;SDS011;2886;49.722;8.612;2024-03-23T01:10:39;10.20;;;4.73;;
5722;SDS011;2886;49.722;8.612;2024-03-23T01:13:05;5.90;;;4.23;;
5722;SDS011;2886;49.722;8.612;2024-03-23T01:15:31;6.87;;;3.80;;
5722;SDS011;2886;49.722;8.612;2024-03-23T01:17:57;6.30;;;4.00;;
5722;SDS011;2886;49.722;8.612;2024-03-23T01:20:23;10.80;;;4.00;;
5722;SDS011;2886;49.722;8.612;2024-03-23T01:22:49;9.57;;;4.90;;
5722;SDS011;2886;49.722;8.612;2024-03-23T01:25:14;7.60;;;4.40;;
5722;SDS011;2886;49.722;8.612;2024-03-23T01:27:40;10.97;;;4.17;;
5722;SDS011;2886;49.722;8.612;2024-03-23T01:30:05;7.40;;;4.30;;
5722;SDS011;2886;49.722;8.612;2024-03-23T01:32:32;7.50;;;4.40;;
5722;SDS011;2886;49.722;8.612;2024-03-23T01:34:58;18.17;;;5.00;;
5722;SDS011;2886;49.722;8.612;2024-03-23T01:37:23;12.20;;;4.40;;
5722;SDS011;2886;49.722;8.612;2024-03-23T01:39:49;9.33;;;4.20;;
5722;SDS011;2886;49.722;8.612;2024-03-23T01:42:15;9.13;;;5.43;;
5722;SDS011;2886;49.722;8.612;2024-03-23T01:44:40;9.30;;;4.87;;
5722;SDS011;2886;49.722;8.612;2024-03-23T01:47:06;7.67;;;4.50;;
5722;SDS011;2886;49.722;8.612;2024-03-23T01:49:32;12.47;;;5.60;;
5722;SDS011;2886;49.722;8.612;2024-03-23T01:51:58;5.80;;;3.93;;
5722;SDS011;2886;49.722;8.612;2024-03-23T01:54:24;8.27;;;5.20;;
5722;SDS011;2886;49.722;8.612;2024-03-23T01:56:50;7.33;;;4.50;;
5722;SDS011;2886;49.722;8.612;2024-03-23T01:59:16;7.43;;;4.77;;
5722;SDS011;2886;49.722;8.612;2024-03-23T02:01:42;10.73;;;5.47;;
5722;SDS011;2886;49.722;8.612;2024-03-23T02:04:07;5.53;;;3.83;;
5722;SDS011;2886;49.722;8.612;2024-03-23T02:06:34;10.17;;;4.80;;
5722;SDS011;2886;49.722;8.612;2024-03-23T02:09:00;8.53;;;4.57;;
5722;SDS011;2886;49.722;8.612;2024-03-23T02:11:26;7.03;;;4.07;;
5722;SDS011;2886;49.722;8.612;2024-03-23T02:13:51;10.00;;;4.93;;
5722;SDS011;2886;49.722;8.612;2024-03-23T02:16:17;11.20;;;5.77;;
5722;SDS011;2886;49.722;8.612;2024-03-23T02:18:43;7.17;;;4.47;;
5722;SDS011;2886;49.722;8.612;2024-03-23T02:21:08;8.83;;;4.60;;
5722;SDS011;2886;49.722;8.612;2024-03-23T02:23:34;10.33;;;5.10;;
5722;SDS011;2886;49.722;8.612;2024-03-23T02:25:59;18.20;;;5.10;;
5722;SDS011;2886;49.722;8.612;2024-03-23T02:28:25;9.27;;;5.63;;
5722;SDS011;2886;49.722;8.612;2024-03-23T02:30:51;9.70;;;4.73;;
5722;SDS011;2886;49.722;8.612;2024-03-23T02:33:17;9.27;;;5.17;;
5722;SDS011;2886;49.722;8.612;2024-03-23T02:35:45;8.97;;;4.87;;
5722;SDS011;2886;49.722;8.612;2024-03-23T02:38:12;11.17;;;5.60;;
5722;SDS011;2886;49.722;8.612;2024-03-23T02:40:37;7.37;;;4.83;;
5722;SDS011;2886;49.722;8.612;2024-03-23T02:43:03;11.33;;;5.50;;
5722;SDS011;2886;49.722;8.612;2024-03-23T02:45:29;11.03;;;5.70;;
5722;SDS011;2886;49.722;8.612;2024-03-23T02:47:56;8.80;;;4.70;;
5722;SDS011;2886;49.722;8.612;2024-03-23T02:50:21;9.23;;;4.97;;
5722;SDS011;2886;49.722;8.612;2024-03-23T02:52:47;11.47;;;5.90;;
5722;SDS011;2886;49.722;8.612;2024-03-23T02:55:13;9.87;;;4.63;;
5722;SDS011;2886;49.722;8.612;2024-03-23T02:57:39;8.57;;;4.93;;
5722;SDS011;2886;49.722;8.612;2024-03-23T03:00:05;9.43;;;4.37;;
5722;SDS011;2886;49.722;8.612;2024-03-23T03:02:32;7.07;;;5.07;;
5722;SDS011;2886;49.722;8.612;2024-03-23T03:04:58;11.23;;;5.33;;
5722;SDS011;2886;49.722;8.612;2024-03-23T03:07:24;8.30;;;5.07;;
5722;SDS011;2886;49.722;8.612;2024-03-23T03:09:49;6.70;;;4.40;;
5722;SDS011;2886;49.722;8.612;2024-03-23T03:12:15;8.93;;;4.67;;
5722;SDS011;2886;49.722;8.612;2024-03-23T03:14:41;9.60;;;4.63;;
5722;SDS011;2886;49.722;8.612;2024-03-23T03:17:06;11.53;;;5.87;;
5722;SDS011;2886;49.722;8.612;2024-03-23T03:19:32;9.60;;;5.30;;
5722;SDS011;2886;49.722;8.612;2024-03-23T03:21:57;11.47;;;6.10;;
5722;SDS011;2886;49.722;8.612;2024-03-23T03:24:23;10.40;;;6.30;;
5722;SDS011;2886;49.722;8.612;2024-03-23T03:26:49;12.00;;;6.23;;
5722;SDS011;2886;49.722;8.612;2024-03-23T03:29:15;10.33;;;5.27;;
5722;SDS011;2886;49.722;8.612;2024-03-23T03:31:40;12.47;;;5.70;;
5722;SDS011;2886;49.722;8.612;2024-03-23T03:34:07;9.20;;;4.93;;
5722;SDS011;2886;49.722;8.612;2024-03-23T03:36:33;10.40;;;5.90;;
5722;SDS011;2886;49.722;8.612;2024-03-23T03:38:59;6.73;;;4.00;;
5722;SDS011;2886;49.722;8.612;2024-03-23T03:41:24;10.90;;;5.07;;
5722;SDS011;2886;49.722;8.612;2024-03-23T03:43:50;13.53;;;5.77;;
5722;SDS011;2886;49.722;8.612;2024-03-23T03:46:15;9.13;;;5.10;;
5722;SDS011;2886;49.722;8.612;2024-03-23T03:48:41;9.70;;;5.60;;
5722;SDS011;2886;49.722;8.612;2024-03-23T03:51:07;16.80;;;6.20;;
5722;SDS011;2886;49.722;8.612;2024-03-23T03:53:32;15.67;;;6.47;;
5722;SDS011;2886;49.722;8.612;2024-03-23T03:56:01;13.87;;;6.37;;
5722;SDS011;2886;49.722;8.612;2024-03-23T03:58:27;15.17;;;6.33;;
5722;SDS011;2886;49.722;8.612;2024-03-23T04:00:53;10.20;;;4.97;;
5722;SDS011;2886;49.722;8.612;2024-03-23T04:03:19;12.93;;;5.50;;
5722;SDS011;2886;49.722;8.612;2024-03-23T04:05:54;13.43;;;6.50;;
5722;SDS011;2886;49.722;8.612;2024-03-23T04:08:20;13.87;;;6.40;;
5722;SDS011;2886;49.722;8.612;2024-03-23T04:10:45;14.60;;;5.90;;
5722;SDS011;2886;49.722;8.612;2024-03-23T04:13:12;14.33;;;5.60;;
5722;SDS011;2886;49.722;8.612;2024-03-23T04:15:38;10.67;;;4.60;;
5722;SDS011;2886;49.722;8.612;2024-03-23T04:18:04;10.53;;;5.20;;
5722;SDS011;2886;49.722;8.612;2024-03-23T04:20:30;14.83;;;5.87;;
5722;SDS011;2886;49.722;8.612;2024-03-23T04:22:58;15.67;;;6.57;;
5722;SDS011;2886;49.722;8.612;2024-03-23T04:25:24;16.23;;;6.50;;
5722;SDS011;2886;49.722;8.612;2024-03-23T04:27:50;9.50;;;5.50;;
5722;SDS011;2886;49.722;8.612;2024-03-23T04:30:16;14.37;;;6.17;;
5722;SDS011;2886;49.722;8.612;2024-03-23T04:32:42;13.60;;;6.33;;
5722;SDS011;2886;49.722;8.612;2024-03-23T04:35:08;14.50;;;6.83;;
5722;SDS011;2886;49.722;8.612;2024-03-23T04:37:38;12.57;;;5.73;;
5722;SDS011;2886;49.722;8.612;2024-03-23T04:40:07;11.67;;;6.50;;
5722;SDS011;2886;49.722;8.612;2024-03-23T04:42:33;7.97;;;4.53;;
5722;SDS011;2886;49.722;8.612;2024-03-23T04:44:59;8.20;;;4.87;;
5722;SDS011;2886;49.722;8.612;2024-03-23T04:47:26;12.60;;;5.77;;
5722;SDS011;2886;49.722;8.612;2024-03-23T04:49:52;13.00;;;5.90;;
5722;SDS011;2886;49.722;8.612;2024-03-23T04:52:17;11.07;;;5.97;;
5722;SDS011;2886;49.722;8.612;2024-03-23T04:54:43;12.50;;;4.77;;
5722;SDS011;2886;49.722;8.612;2024-03-23T04:57:10;10.77;;;4.80;;
5722;SDS011;2886;49.722;8.612;2024-03-23T04:59:36;5.93;;;3.23;;
5722;SDS011;2886;49.722;8.612;2024-03-23T05:02:01;3.90;;;2.93;;
5722;SDS011;2886;49.722;8.612;2024-03-23T05:04:28;4.20;;;2.90;;
5722;SDS011;2886;49.722;8.612;2024-03-23T05:06:59;3.37;;;2.17;;
5722;SDS011;2886;49.722;8.612;2024-03-23T05:09:25;3.00;;;1.63;;
5722;SDS011;2886;49.722;8.612;2024-03-23T05:11:55;2.70;;;2.10;;
5722;SDS011;2886;49.722;8.612;2024-03-23T05:14:21;3.70;;;2.67;;
5722;SDS011;2886;49.722;8.612;2024-03-23T05:16:47;1.47;;;1.37;;
5722;SDS011;2886;49.722;8.612;2024-03-23T05:19:12;2.10;;;1.43;;
5722;SDS011;2886;49.722;8.612;2024-03-23T05:21:38;10.03;;;4.60;;
5722;SDS011;2886;49.722;8.612;2024-03-23T05:24:03;1.60;;;1.50;;
5722;SDS011;2886;49.722;8.612;2024-03-23T05:26:29;1.83;;;1.03;;
5722;SDS011;2886;49.722;8.612;2024-03-23T05:28:55;3.03;;;1.13;;
5722;SDS011;2886;49.722;8.612;2024-03-23T05:31:24;1.83;;;1.10;;
5722;SDS011;2886;49.722;8.612;2024-03-23T05:33:51;2.87;;;1.30;;
5722;SDS011;2886;49.722;8.612;2024-03-23T05:36:17;3.20;;;1.70;;
5722;SDS011;2886;49.722;8.612;2024-03-23T05:38:43;1.67;;;1.53;;
5722;SDS011;2886;49.722;8.612;2024-03-23T05:41:09;1.20;;;1.10;;
5722;SDS011;2886;49.722;8.612;2024-03-23T05:43:35;1.67;;;1.30;;
5722;SDS011;2886;49.722;8.612;2024-03-23T05:46:00;2.50;;;1.40;;
5722;SDS011;2886;49.722;8.612;2024-03-23T05:48:30;2.87;;;1.60;;
5722;SDS011;2886;49.722;8.612;2024-03-23T05:50:57;1.80;;;1.67;;
5722;SDS011;2886;49.722;8.612;2024-03-23T05:53:23;10.73;;;4.27;;
5722;SDS011;2886;49.722;8.612;2024-03-23T05:55:49;5.33;;;1.83;;
5722;SDS011;2886;49.722;8.612;2024-03-23T05:58:16;1.73;;;1.47;;
5722;SDS011;2886;49.722;8.612;2024-03-23T06:00:44;3.23;;;1.40;;
5722;SDS011;2886;49.722;8.612;2024-03-23T06:03:10;2.73;;;1.63;;
5722;SDS011;2886;49.722;8.612;2024-03-23T06:05:36;1.77;;;1.67;;
5722;SDS011;2886;49.722;8.612;2024-03-23T06:08:02;1.60;;;1.20;;
5722;SDS011;2886;49.722;8.612;2024-03-23T06:10:29;3.53;;;1.43;;
5722;SDS011;2886;49.722;8.612;2024-03-23T06:12:54;4.67;;;1.53;;
5722;SDS011;2886;49.722;8.612;2024-03-23T06:15:20;1.60;;;1.50;;
5722;SDS011;2886;49.722;8.612;2024-03-23T06:17:47;0.90;;;0.80;;
5722;SDS011;2886;49.722;8.612;2024-03-23T06:20:13;1.80;;;1.50;;
5722;SDS011;2886;49.722;8.612;2024-03-23T06:22:39;3.07;;;1.30;;
5722;SDS011;2886;49.722;8.612;2024-03-23T06:25:05;1.03;;;0.97;;
5722;SDS011;2886;49.722;8.612;2024-03-23T06:27:31;1.10;;;1.00;;
5722;SDS011;2886;49.722;8.612;2024-03-23T06:29:58;1.93;;;1.70;;
5722;SDS011;2886;49.722;8.612;2024-03-23T06:32:24;1.83;;;1.33;;
5722;SDS011;2886;49.722;8.612;2024-03-23T06:34:49;2.23;;;1.27;;
5722;SDS011;2886;49.722;8.612;2024-03-23T06:37:16;1.10;;;0.83;;
5722;SDS011;2886;49.722;8.612;2024-03-23T06:39:42;1.50;;;1.40;;
5722;SDS011;2886;49.722;8.612;2024-03-23T06:42:07;1.00;;;0.87;;
5722;SDS011;2886;49.722;8.612;2024-03-23T06:44:33;1.17;;;0.70;;
5722;SDS011;2886;49.722;8.612;2024-03-23T06:46:59;0.80;;;0.70;;
5722;SDS011;2886;49.722;8.612;2024-03-23T06:49:24;11.03;;;3.60;;
5722;SDS011;2886;49.722;8.612;2024-03-23T06:51:50;5.40;;;1.50;;
5722;SDS011;2886;49.722;8.612;2024-03-23T06:54:16;1.20;;;0.80;;
5722;SDS011;2886;49.722;8.612;2024-03-23T06:56:45;0.70;;;0.70;;
5722;SDS011;2886;49.722;8.612;2024-03-23T06:59:11;0.93;;;0.70;;
5722;SDS011;2886;49.722;8.612;2024-03-23T07:01:37;0.70;;;0.57;;
5722;SDS011;2886;49.722;8.612;2024-03-23T07:04:03;1.10;;;1.00;;
5722;SDS011;2886;49.722;8.612;2024-03-23T07:06:32;0.80;;;0.60;;
5722;SDS011;2886;49.722;8.612;2024-03-23T07:08:57;2.10;;;1.30;;
5722;SDS011;2886;49.722;8.612;2024-03-23T07:11:23;2.20;;;0.80;;
5722;SDS011;2886;49.722;8.612;2024-03-23T07:13:52;7.23;;;1.23;;
5722;SDS011;2886;49.722;8.612;2024-03-23T07:16:19;0.80;;;0.70;;
5722;SDS011;2886;49.722;8.612;2024-03-23T07:18:45;0.90;;;0.90;;
5722;SDS011;2886;49.722;8.612;2024-03-23T07:21:11;3.83;;;1.00;;
5722;SDS011;2886;49.722;8.612;2024-03-23T07:23:36;0.87;;;0.87;;
5722;SDS011;2886;49.722;8.612;2024-03-23T07:26:03;3.53;;;1.10;;
5722;SDS011;2886;49.722;8.612;2024-03-23T07:28:30;50.60;;;6.53;;
5722;SDS011;2886;49.722;8.612;2024-03-23T07:33:28;1.70;;;1.40;;
5722;SDS011;2886;49.722;8.612;2024-03-23T07:35:53;10.10;;;1.70;;
5722;SDS011;2886;49.722;8.612;2024-03-23T07:38:19;0.93;;;0.90;;
5722;SDS011;2886;49.722;8.612;2024-03-23T07:40:45;2.50;;;1.63;;
5722;SDS011;2886;49.722;8.612;2024-03-23T07:43:10;1.40;;;1.30;;
5722;SDS011;2886;49.722;8.612;2024-03-23T07:45:36;2.20;;;1.87;;
5722;SDS011;2886;49.722;8.612;2024-03-23T07:48:03;2.37;;;1.70;;
5722;SDS011;2886;49.722;8.612;2024-03-23T07:50:29;3.47;;;1.17;;
5722;SDS011;2886;49.722;8.612;2024-03-23T07:52:55;1.80;;;1.17;;
5722;SDS011;2886;49.722;8.612;2024-03-23T07:55:20;2.47;;;1.50;;
5722;SDS011;2886;49.722;8.612;2024-03-23T07:57:47;2.17;;;1.20;;
5722;SDS011;2886;49.722;8.612;2024-03-23T08:00:13;2.23;;;1.37;;
5722;SDS011;2886;49.722;8.612;2024-03-23T08:02:41;1.73;;;1.40;;
5722;SDS011;2886;49.722;8.612;2024-03-23T08:05:07;1.20;;;1.10;;
5722;SDS011;2886;49.722;8.612;2024-03-23T08:07:33;2.30;;;1.20;;
5722;SDS011;2886;49.722;8.612;2024-03-23T08:09:58;4.33;;;1.70;;
5722;SDS011;2886;49.722;8.612;2024-03-23T08:12:25;3.73;;;1.60;;
5722;SDS011;2886;49.722;8.612;2024-03-23T08:14:50;2.83;;;2.13;;
5722;SDS011;2886;49.722;8.612;2024-03-23T08:17:16;1.60;;;1.40;;
5722;SDS011;2886;49.722;8.612;2024-03-23T08:19:41;1.50;;;1.40;;
5722;SDS011;2886;49.722;8.612;2024-03-23T08:22:07;2.20;;;1.67;;
5722;SDS011;2886;49.722;8.612;2024-03-23T08:24:34;5.67;;;1.40;;
5722;SDS011;2886;49.722;8.612;2024-03-23T08:27:00;2.30;;;2.10;;
5722;SDS011;2886;49.722;8.612;2024-03-23T08:29:26;2.23;;;1.83;;
5722;SDS011;2886;49.722;8.612;2024-03-23T08:31:51;39.63;;;6.47;;
5722;SDS011;2886;49.722;8.612;2024-03-23T08:34:17;3.03;;;2.67;;
5722;SDS011;2886;49.722;8.612;2024-03-23T08:36:42;39.43;;;9.23;;
5722;SDS011;2886;49.722;8.612;2024-03-23T08:39:08;9.43;;;3.00;;
5722;SDS011;2886;49.722;8.612;2024-03-23T08:41:34;18.03;;;4.23;;
5722;SDS011;2886;49.722;8.612;2024-03-23T08:44:00;5.27;;;3.50;;
5722;SDS011;2886;49.722;8.612;2024-03-23T08:46:25;17.90;;;6.37;;
5722;SDS011;2886;49.722;8.612;2024-03-23T08:48:51;10.63;;;3.27;;
5722;SDS011;2886;49.722;8.612;2024-03-23T08:51:18;2.40;;;2.20;;
5722;SDS011;2886;49.722;8.612;2024-03-23T08:53:44;2.30;;;1.80;;
5722;SDS011;2886;49.722;8.612;2024-03-23T08:56:10;4.03;;;2.07;;
5722;SDS011;2886;49.722;8.612;2024-03-23T08:58:36;24.40;;;8.03;;
5722;SDS011;2886;49.722;8.612;2024-03-23T09:01:04;2.20;;;1.40;;
5722;SDS011;2886;49.722;8.612;2024-03-23T09:03:38;1.60;;;1.50;;
5722;SDS011;2886;49.722;8.612;2024-03-23T09:06:07;2.20;;;1.60;;
5722;SDS011;2886;49.722;8.612;2024-03-23T09:08:34;3.40;;;1.73;;
5722;SDS011;2886;49.722;8.612;2024-03-23T09:11:04;1.90;;;1.70;;
5722;SDS011;2886;49.722;8.612;2024-03-23T09:13:34;4.60;;;1.70;;
5722;SDS011;2886;49.722;8.612;2024-03-23T09:16:00;3.43;;;2.23;;
5722;SDS011;2886;49.722;8.612;2024-03-23T09:18:27;5.23;;;1.40;;
5722;SDS011;2886;49.722;8.612;2024-03-23T09:20:53;8.90;;;2.70;;
5722;SDS011;2886;49.722;8.612;2024-03-23T09:23:20;1.60;;;1.50;;
5722;SDS011;2886;49.722;8.612;2024-03-23T09:25:46;2.60;;;1.67;;
5722;SDS011;2886;49.722;8.612;2024-03-23T09:28:13;2.80;;;1.40;;
5722;SDS011;2886;49.722;8.612;2024-03-23T09:30:38;13.40;;;2.10;;
5722;SDS011;2886;49.722;8.612;2024-03-23T09:33:07;6.60;;;1.50;;
5722;SDS011;2886;49.722;8.612;2024-03-23T09:35:40;3.40;;;2.20;;
5722;SDS011;2886;49.722;8.612;2024-03-23T09:38:06;2.00;;;1.80;;
5722;SDS011;2886;49.722;8.612;2024-03-23T09:40:33;8.33;;;1.70;;
5722;SDS011;2886;49.722;8.612;2024-03-23T09:42:59;2.23;;;1.40;;
5722;SDS011;2886;49.722;8.612;2024-03-23T09:45:28;1.50;;;1.40;;
5722;SDS011;2886;49.722;8.612;2024-03-23T09:47:55;1.70;;;1.30;;
5722;SDS011;2886;49.722;8.612;2024-03-23T09:50:21;2.63;;;1.63;;
5722;SDS011;2886;49.722;8.612;2024-03-23T09:52:47;3.73;;;1.50;;
5722;SDS011;2886;49.722;8.612;2024-03-23T09:55:13;2.03;;;1.40;;
5722;SDS011;2886;49.722;8.612;2024-03-23T09:57:39;3.37;;;1.20;;
5722;SDS011;2886;49.722;8.612;2024-03-23T10:00:05;3.27;;;1.57;;
5722;SDS011;2886;49.722;8.612;2024-03-23T10:02:32;7.90;;;2.17;;
5722;SDS011;2886;49.722;8.612;2024-03-23T10:04:59;2.70;;;1.50;;
5722;SDS011;2886;49.722;8.612;2024-03-23T10:07:25;1.60;;;1.50;;
5722;SDS011;2886;49.722;8.612;2024-03-23T10:09:51;1.00;;;0.93;;
5722;SDS011;2886;49.722;8.612;2024-03-23T10:12:17;1.77;;;1.13;;
5722;SDS011;2886;49.722;8.612;2024-03-23T10:14:43;5.63;;;1.67;;
5722;SDS011;2886;49.722;8.612;2024-03-23T10:17:17;1.73;;;1.20;;
5722;SDS011;2886;49.722;8.612;2024-03-23T10:19:50;9.77;;;2.00;;
5722;SDS011;2886;49.722;8.612;2024-03-23T10:22:25;2.47;;;1.60;;
5722;SDS011;2886;49.722;8.612;2024-03-23T10:24:51;1.33;;;1.13;;
5722;SDS011;2886;49.722;8.612;2024-03-23T10:27:17;1.73;;;1.40;;
5722;SDS011;2886;49.722;8.612;2024-03-23T10:29:47;3.53;;;1.70;;
5722;SDS011;2886;49.722;8.612;2024-03-23T10:32:14;2.03;;;1.20;;
5722;SDS011;2886;49.722;8.612;2024-03-23T10:34:43;1.70;;;1.20;;
5722;SDS011;2886;49.722;8.612;2024-03-23T10:37:09;1.27;;;1.17;;
5722;SDS011;2886;49.722;8.612;2024-03-23T10:39:38;5.63;;;1.47;;
5722;SDS011;2886;49.722;8.612;2024-03-23T10:42:05;4.13;;;2.07;;
5722;SDS011;2886;49.722;8.612;2024-03-23T10:44:32;7.03;;;1.53;;
5722;SDS011;2886;49.722;8.612;2024-03-23T10:46:59;1.90;;;1.43;;
5722;SDS011;2886;49.722;8.612;2024-03-23T10:49:28;3.13;;;1.70;;
5722;SDS011;2886;49.722;8.612;2024-03-23T10:51:56;1.33;;;1.10;;
5722;SDS011;2886;49.722;8.612;2024-03-23T10:54:23;3.43;;;1.43;;
5722;SDS011;2886;49.722;8.612;2024-03-23T10:56:55;2.40;;;1.50;;
5722;SDS011;2886;49.722;8.612;2024-03-23T10:59:28;4.33;;;1.87;;
5722;SDS011;2886;49.722;8.612;2024-03-23T11:01:55;3.57;;;1.43;;
5722;SDS011;2886;49.722;8.612;2024-03-23T11:04:31;1.80;;;1.00;;
5722;SDS011;2886;49.722;8.612;2024-03-23T11:06:57;2.17;;;1.63;;
5722;SDS011;2886;49.722;8.612;2024-03-23T11:09:41;2.33;;;1.60;;
5722;SDS011;2886;49.722;8.612;2024-03-23T11:15:04;1.87;;;1.10;;
5722;SDS011;2886;49.722;8.612;2024-03-23T11:17:36;0.83;;;0.83;;
5722;SDS011;2886;49.722;8.612;2024-03-23T11:20:02;0.80;;;0.70;;
5722;SDS011;2886;49.722;8.612;2024-03-23T11:27:43;1.40;;;1.30;;
5722;SDS011;2886;49.722;8.612;2024-03-23T11:30:11;0.70;;;0.60;;
5722;SDS011;2886;49.722;8.612;2024-03-23T11:32:43;1.33;;;0.90;;
5722;SDS011;2886;49.722;8.612;2024-03-23T11:38:15;1.40;;;0.80;;
5722;SDS011;2886;49.722;8.612;2024-03-23T11:40:52;0.90;;;0.80;;
5722;SDS011;2886;49.722;8.612;2024-03-23T11:43:19;1.40;;;1.30;;
5722;SDS011;2886;49.722;8.612;2024-03-23T11:45:50;0.97;;;0.60;;
5722;SDS011;2886;49.722;8.612;2024-03-23T11:48:18;1.20;;;0.90;;
5722;SDS011;2886;49.722;8.612;2024-03-23T11:50:46;0.90;;;0.70;;
5722;SDS011;2886;49.722;8.612;2024-03-23T11:53:13;2.17;;;1.93;;
5722;SDS011;2886;49.722;8.612;2024-03-23T11:55:42;0.70;;;0.70;;
5722;SDS011;2886;49.722;8.612;2024-03-23T11:58:08;0.70;;;0.70;;
5722;SDS011;2886;49.722;8.612;2024-03-23T12:00:35;1.70;;;1.00;;
5722;SDS011;2886;49.722;8.612;2024-03-23T12:03:03;1.23;;;0.90;;
5722;SDS011;2886;49.722;8.612;2024-03-23T12:05:30;3.27;;;1.20;;
5722;SDS011;2886;49.722;8.612;2024-03-23T12:10:52;1.37;;;0.83;;
5722;SDS011;2886;49.722;8.612;2024-03-23T12:13:29;4.40;;;0.90;;
5722;SDS011;2886;49.722;8.612;2024-03-23T12:15:54;2.10;;;1.40;;
5722;SDS011;2886;49.722;8.612;2024-03-23T12:18:33;1.33;;;1.20;;
5722;SDS011;2886;49.722;8.612;2024-03-23T12:20:59;3.23;;;1.00;;
5722;SDS011;2886;49.722;8.612;2024-03-23T12:23:25;2.03;;;1.07;;
5722;SDS011;2886;49.722;8.612;2024-03-23T12:25:50;1.10;;;1.00;;
5722;SDS011;2886;49.722;8.612;2024-03-23T12:28:16;1.10;;;1.00;;
5722;SDS011;2886;49.722;8.612;2024-03-23T12:30:43;1.60;;;1.00;;
5722;SDS011;2886;49.722;8.612;2024-03-23T12:33:08;1.20;;;1.10;;
5722;SDS011;2886;49.722;8.612;2024-03-23T12:35:34;1.63;;;1.33;;
5722;SDS011;2886;49.722;8.612;2024-03-23T12:38:00;2.20;;;1.10;;
5722;SDS011;2886;49.722;8.612;2024-03-23T12:40:25;1.40;;;1.23;;
5722;SDS011;2886;49.722;8.612;2024-03-23T12:42:54;7.83;;;1.33;;
5722;SDS011;2886;49.722;8.612;2024-03-23T12:45:21;2.17;;;1.67;;
5722;SDS011;2886;49.722;8.612;2024-03-23T12:47:47;1.53;;;1.30;;
5722;SDS011;2886;49.722;8.612;2024-03-23T12:50:12;1.63;;;1.00;;
5722;SDS011;2886;49.722;8.612;2024-03-23T12:52:38;1.33;;;1.23;;
5722;SDS011;2886;49.722;8.612;2024-03-23T12:55:04;0.83;;;0.83;;
5722;SDS011;2886;49.722;8.612;2024-03-23T12:57:30;3.33;;;1.33;;
5722;SDS011;2886;49.722;8.612;2024-03-23T12:59:57;5.17;;;1.00;;
5722;SDS011;2886;49.722;8.612;2024-03-23T13:02:22;1.33;;;1.23;;
5722;SDS011;2886;49.722;8.612;2024-03-23T13:04:51;2.90;;;0.97;;
5722;SDS011;2886;49.722;8.612;2024-03-23T13:07:18;1.37;;;1.13;;
5722;SDS011;2886;49.722;8.612;2024-03-23T13:09:46;3.00;;;2.17;;
5722;SDS011;2886;49.722;8.612;2024-03-23T13:12:11;1.00;;;0.90;;
5722;SDS011;2886;49.722;8.612;2024-03-23T13:14:40;1.40;;;0.97;;
5722;SDS011;2886;49.722;8.612;2024-03-23T13:17:07;0.97;;;0.80;;
5722;SDS011;2886;49.722;8.612;2024-03-23T13:19:33;1.63;;;1.00;;
5722;SDS011;2886;49.722;8.612;2024-03-23T13:21:59;2.23;;;1.07;;
5722;SDS011;2886;49.722;8.612;2024-03-23T13:24:26;1.97;;;0.93;;
5722;SDS011;2886;49.722;8.612;2024-03-23T13:26:53;0.77;;;0.73;;
5722;SDS011;2886;49.722;8.612;2024-03-23T13:29:19;0.87;;;0.60;;
5722;SDS011;2886;49.722;8.612;2024-03-23T13:31:46;0.70;;;0.67;;
5722;SDS011;2886;49.722;8.612;2024-03-23T13:34:12;3.33;;;1.00;;
5722;SDS011;2886;49.722;8.612;2024-03-23T13:36:41;0.70;;;0.60;;
5722;SDS011;2886;49.722;8.612;2024-03-23T13:39:07;0.87;;;0.60;;
5722;SDS011;2886;49.722;8.612;2024-03-23T13:41:42;1.40;;;1.00;;
5722;SDS011;2886;49.722;8.612;2024-03-23T13:44:11;1.80;;;0.90;;
5722;SDS011;2886;49.722;8.612;2024-03-23T13:46:38;0.70;;;0.60;;
5722;SDS011;2886;49.722;8.612;2024-03-23T13:49:05;1.00;;;0.90;;
5722;SDS011;2886;49.722;8.612;2024-03-23T13:51:31;1.33;;;0.80;;
5722;SDS011;2886;49.722;8.612;2024-03-23T13:53:58;0.93;;;0.80;;
5722;SDS011;2886;49.722;8.612;2024-03-23T13:56:27;0.70;;;0.60;;
5722;SDS011;2886;49.722;8.612;2024-03-23T13:58:56;11.53;;;0.93;;
5722;SDS011;2886;49.722;8.612;2024-03-23T14:01:22;3.93;;;0.90;;
5722;SDS011;2886;49.722;8.612;2024-03-23T14:03:47;1.00;;;0.73;;
5722;SDS011;2886;49.722;8.612;2024-03-23T14:06:13;0.73;;;0.70;;
5722;SDS011;2886;49.722;8.612;2024-03-23T14:08:39;1.63;;;0.80;;
5722;SDS011;2886;49.722;8.612;2024-03-23T14:11:05;0.80;;;0.60;;
5722;SDS011;2886;49.722;8.612;2024-03-23T14:13:31;2.13;;;0.90;;
5722;SDS011;2886;49.722;8.612;2024-03-23T14:15:57;1.17;;;0.60;;
5722;SDS011;2886;49.722;8.612;2024-03-23T14:18:23;0.80;;;0.60;;
5722;SDS011;2886;49.722;8.612;2024-03-23T14:20:50;1.53;;;0.90;;
5722;SDS011;2886;49.722;8.612;2024-03-23T14:23:16;1.00;;;0.67;;
5722;SDS011;2886;49.722;8.612;2024-03-23T14:25:42;0.70;;;0.60;;
5722;SDS011;2886;49.722;8.612;2024-03-23T14:28:08;0.83;;;0.83;;
5722;SDS011;2886;49.722;8.612;2024-03-23T14:30:39;2.40;;;0.77;;
5722;SDS011;2886;49.722;8.612;2024-03-23T14:33:08;0.80;;;0.70;;
5722;SDS011;2886;49.722;8.612;2024-03-23T14:35:34;0.70;;;0.63;;
5722;SDS011;2886;49.722;8.612;2024-03-23T14:38:00;1.10;;;0.80;;
5722;SDS011;2886;49.722;8.612;2024-03-23T14:40:26;1.03;;;0.77;;
5722;SDS011;2886;49.722;8.612;2024-03-23T14:42:52;2.50;;;0.70;;
5722;SDS011;2886;49.722;8.612;2024-03-23T14:45:21;0.70;;;0.60;;
5722;SDS011;2886;49.722;8.612;2024-03-23T14:47:48;3.27;;;2.17;;
5722;SDS011;2886;49.722;8.612;2024-03-23T14:50:14;0.70;;;0.60;;
5722;SDS011;2886;49.722;8.612;2024-03-23T14:52:44;0.70;;;0.60;;
5722;SDS011;2886;49.722;8.612;2024-03-23T14:55:10;0.70;;;0.60;;
5722;SDS011;2886;49.722;8.612;2024-03-23T14:57:38;1.00;;;0.70;;
5722;SDS011;2886;49.722;8.612;2024-03-23T15:00:06;0.70;;;0.50;;
5722;SDS011;2886;49.722;8.612;2024-03-23T15:02:32;0.70;;;0.50;;
5722;SDS011;2886;49.722;8.612;2024-03-23T15:04:59;2.50;;;1.10;;
5722;SDS011;2886;49.722;8.612;2024-03-23T15:07:25;0.80;;;0.70;;
5722;SDS011;2886;49.722;8.612;2024-03-23T15:09:52;2.63;;;0.70;;
5722;SDS011;2886;49.722;8.612;2024-03-23T15:12:18;1.20;;;1.10;;
5722;SDS011;2886;49.722;8.612;2024-03-23T15:14:45;0.83;;;0.70;;
5722;SDS011;2886;49.722;8.612;2024-03-23T15:17:11;1.00;;;0.80;;
5722;SDS011;2886;49.722;8.612;2024-03-23T15:19:37;0.90;;;0.60;;
5722;SDS011;2886;49.722;8.612;2024-03-23T15:22:03;1.43;;;0.70;;
5722;SDS011;2886;49.722;8.612;2024-03-23T15:24:30;0.80;;;0.70;;
5722;SDS011;2886;49.722;8.612;2024-03-23T15:26:56;1.73;;;0.90;;
5722;SDS011;2886;49.722;8.612;2024-03-23T15:29:22;0.70;;;0.63;;
5722;SDS011;2886;49.722;8.612;2024-03-23T15:31:48;0.93;;;0.60;;
5722;SDS011;2886;49.722;8.612;2024-03-23T15:34:18;1.40;;;0.80;;
5722;SDS011;2886;49.722;8.612;2024-03-23T15:36:46;1.00;;;0.90;;
5722;SDS011;2886;49.722;8.612;2024-03-23T15:39:14;1.00;;;1.00;;
5722;SDS011;2886;49.722;8.612;2024-03-23T15:41:40;4.63;;;1.30;;
5722;SDS011;2886;49.722;8.612;2024-03-23T15:44:05;0.73;;;0.70;;
5722;SDS011;2886;49.722;8.612;2024-03-23T15:46:31;1.00;;;0.90;;
5722;SDS011;2886;49.722;8.612;2024-03-23T15:48:57;0.80;;;0.80;;
5722;SDS011;2886;49.722;8.612;2024-03-23T15:51:22;1.30;;;0.93;;
5722;SDS011;2886;49.722;8.612;2024-03-23T15:53:48;4.10;;;0.87;;
5722;SDS011;2886;49.722;8.612;2024-03-23T15:56:17;3.80;;;0.80;;
5722;SDS011;2886;49.722;8.612;2024-03-23T15:58:43;1.37;;;0.80;;
5722;SDS011;2886;49.722;8.612;2024-03-23T16:01:08;0.80;;;0.80;;
5722;SDS011;2886;49.722;8.612;2024-03-23T16:03:35;6.10;;;0.87;;
5722;SDS011;2886;49.722;8.612;2024-03-23T16:06:03;2.73;;;0.97;;
5722;SDS011;2886;49.722;8.612;2024-03-23T16:08:30;0.70;;;0.70;;
5722;SDS011;2886;49.722;8.612;2024-03-23T16:11:00;1.03;;;0.60;;
5722;SDS011;2886;49.722;8.612;2024-03-23T16:13:27;0.90;;;0.80;;
5722;SDS011;2886;49.722;8.612;2024-03-23T16:16:03;0.87;;;0.60;;
5722;SDS011;2886;49.722;8.612;2024-03-23T16:18:32;1.30;;;0.83;;